createdAt,value
2022-07-25T00:00:43.907Z,55.84
2022-07-25T00:01:39.158Z,55.35
2022-07-25T00:02:34.275Z,54.49
2022-07-25T00:03:29.812Z,53.41
2022-07-25T00:04:25.060Z,53.30
2022-07-25T00:05:20.203Z,55.69
2022-07-25T00:06:17.974Z,56.59
2022-07-25T00:07:11.725Z,55.91
2022-07-25T00:08:06.941Z,54.74
2022-07-25T00:09:02.170Z,54.63
2022-07-25T00:09:57.290Z,56.59
2022-07-25T00:10:52.489Z,58.05
2022-07-25T00:11:47.685Z,54.92
2022-07-25T00:12:42.805Z,52.40
2022-07-25T00:13:37.925Z,53.85
2022-07-25T00:14:33.270Z,53.51
2022-07-25T00:15:28.374Z,53.58
2022-07-25T00:16:23.709Z,56.02
2022-07-25T00:17:18.837Z,56.94
2022-07-25T00:18:14.047Z,55.21
2022-07-25T00:19:09.284Z,55.76
2022-07-25T00:20:04.445Z,56.02
2022-07-25T00:20:59.553Z,54.28
2022-07-25T00:21:54.930Z,53.68
2022-07-25T00:22:50.014Z,55.50
2022-07-25T00:23:45.123Z,58.01
2022-07-25T00:24:40.235Z,57.18
2022-07-25T00:25:35.434Z,56.17
2022-07-25T00:26:30.822Z,54.20
2022-07-25T00:27:25.939Z,56.37
2022-07-25T00:28:21.050Z,57.02
2022-07-25T00:29:16.176Z,56.14
2022-07-25T00:30:11.569Z,53.75
2022-07-25T00:31:06.659Z,55.03
2022-07-25T00:32:01.770Z,56.59
2022-07-25T00:32:57.014Z,55.50
2022-07-25T00:33:52.128Z,54.74
2022-07-25T00:34:47.378Z,55.54
2022-07-25T00:35:42.463Z,56.90
2022-07-25T00:36:37.601Z,55.99
2022-07-25T00:37:32.832Z,56.86
2022-07-25T00:38:28.182Z,57.73
2022-07-25T00:39:23.169Z,56.33
2022-07-25T00:40:18.275Z,58.42
2022-07-25T00:41:13.381Z,57.81
2022-07-25T00:42:08.590Z,54.52
2022-07-25T00:43:03.978Z,54.67
2022-07-25T00:43:59.074Z,56.40
2022-07-25T00:44:54.241Z,52.90
2022-07-25T00:45:49.344Z,51.05
2022-07-25T00:46:44.771Z,52.50
2022-07-25T00:47:39.879Z,50.87
2022-07-25T00:48:35.080Z,49.95
2022-07-25T00:49:30.325Z,52.20
2022-07-25T00:50:25.439Z,52.83
2022-07-25T00:51:20.706Z,51.56
2022-07-25T00:52:15.796Z,52.43
2022-07-25T00:53:10.924Z,53.24
2022-07-25T00:54:06.502Z,54.28
2022-07-25T00:55:01.462Z,52.27
2022-07-25T00:55:56.460Z,51.18
2022-07-25T00:56:51.593Z,49.83
2022-07-25T00:57:46.735Z,49.86
2022-07-25T00:58:41.818Z,51.40
2022-07-25T00:59:37.185Z,53.41
2022-07-25T01:00:32.292Z,54.99
2022-07-25T01:01:27.565Z,56.75
2022-07-25T01:02:22.678Z,54.88
2022-07-25T01:03:18.105Z,53.00
2022-07-25T01:04:13.056Z,55.13
2022-07-25T01:05:08.206Z,54.67
2022-07-25T01:06:03.207Z,52.14
2022-07-25T01:06:58.303Z,52.30
2022-07-25T01:07:53.337Z,54.59
2022-07-25T01:08:48.571Z,56.14
2022-07-25T01:09:43.715Z,54.95
2022-07-25T01:10:38.966Z,53.20
2022-07-25T01:11:33.940Z,51.59
2022-07-25T01:12:29.145Z,50.47
2022-07-25T01:13:24.161Z,49.30
2022-07-25T01:14:19.542Z,51.21
2022-07-25T01:15:14.360Z,53.61
2022-07-25T01:16:09.456Z,54.35
2022-07-25T01:17:04.423Z,53.96
2022-07-25T01:17:59.638Z,52.30
2022-07-25T01:18:54.531Z,53.13
2022-07-25T01:19:49.562Z,55.58
2022-07-25T01:20:44.614Z,53.78
2022-07-25T01:21:39.738Z,51.91
2022-07-25T01:22:34.741Z,50.62
2022-07-25T01:23:29.855Z,49.86
2022-07-25T01:24:25.382Z,51.15
2022-07-25T01:25:20.501Z,55.69
2022-07-25T01:26:15.614Z,56.02
2022-07-25T01:27:17.402Z,54.59
2022-07-25T01:28:07.607Z,57.18
2022-07-25T01:29:02.490Z,57.37
2022-07-25T01:29:57.768Z,56.44
2022-07-25T01:30:53.082Z,56.90
2022-07-25T01:31:48.753Z,57.25
2022-07-25T01:32:43.998Z,58.66
2022-07-25T01:33:39.094Z,60.45
2022-07-25T01:34:35.625Z,58.58
2022-07-25T01:35:30.804Z,56.33
2022-07-25T01:36:26.594Z,54.74
2022-07-25T01:37:21.816Z,53.30
2022-07-25T01:38:16.973Z,52.47
2022-07-25T01:39:12.816Z,54.52
2022-07-25T01:40:07.977Z,55.58
2022-07-25T01:41:03.778Z,56.40
2022-07-25T01:41:58.982Z,55.28
2022-07-25T01:42:54.255Z,56.25
2022-07-25T01:43:50.072Z,57.97
2022-07-25T01:44:45.222Z,57.18
2022-07-25T01:45:40.340Z,58.01
2022-07-25T01:46:36.791Z,55.47
2022-07-25T01:47:31.991Z,55.06
2022-07-25T01:48:27.831Z,56.71
2022-07-25T01:49:22.933Z,55.84
2022-07-25T01:50:18.084Z,55.76
2022-07-25T01:51:13.916Z,57.41
2022-07-25T01:52:09.171Z,57.41
2022-07-25T01:53:05.081Z,58.99
2022-07-25T01:54:00.223Z,56.94
2022-07-25T01:54:55.383Z,55.95
2022-07-25T01:55:51.236Z,55.84
2022-07-25T01:56:47.643Z,56.56
2022-07-25T01:57:48.606Z,58.29
2022-07-25T01:58:37.985Z,56.52
2022-07-25T01:59:32.039Z,57.53
2022-07-25T02:00:27.053Z,59.42
2022-07-25T02:01:22.286Z,57.49
2022-07-25T02:02:17.162Z,54.24
2022-07-25T02:03:12.371Z,53.58
2022-07-25T02:04:07.577Z,55.10
2022-07-25T02:05:02.323Z,54.28
2022-07-25T02:05:57.337Z,54.59
2022-07-25T02:06:52.348Z,53.41
2022-07-25T02:07:47.358Z,54.74
2022-07-25T02:08:44.079Z,55.50
2022-07-25T02:09:39.180Z,55.21
2022-07-25T02:10:34.358Z,54.03
2022-07-25T02:11:29.438Z,53.61
2022-07-25T02:12:24.469Z,52.01
2022-07-25T02:13:19.448Z,53.78
2022-07-25T02:14:14.583Z,55.43
2022-07-25T02:15:09.577Z,56.06
2022-07-25T02:16:04.716Z,54.28
2022-07-25T02:16:59.924Z,52.14
2022-07-25T02:17:54.915Z,49.86
2022-07-25T02:18:49.946Z,50.01
2022-07-25T02:19:45.070Z,51.43
2022-07-25T02:20:40.050Z,52.83
2022-07-25T02:21:35.876Z,53.07
2022-07-25T02:22:31.101Z,54.59
2022-07-25T02:23:26.219Z,55.39
2022-07-25T02:24:22.553Z,53.30
2022-07-25T02:25:17.803Z,53.00
2022-07-25T02:26:13.624Z,53.07
2022-07-25T02:27:08.733Z,53.44
2022-07-25T02:28:03.869Z,53.68
2022-07-25T02:28:59.745Z,54.63
2022-07-25T02:29:54.998Z,54.56
2022-07-25T02:30:50.979Z,55.21
2022-07-25T02:31:45.903Z,54.06
2022-07-25T02:32:41.174Z,53.51
2022-07-25T02:33:37.021Z,53.30
2022-07-25T02:34:32.261Z,53.47
2022-07-25T02:35:27.529Z,56.48
2022-07-25T02:36:22.710Z,58.50
2022-07-25T02:37:17.822Z,56.98
2022-07-25T02:38:13.273Z,55.47
2022-07-25T02:39:08.456Z,53.72
2022-07-25T02:40:03.540Z,53.00
2022-07-25T02:40:59.339Z,54.06
2022-07-25T02:41:54.561Z,52.87
2022-07-25T02:42:49.806Z,51.75
2022-07-25T02:43:44.907Z,50.84
2022-07-25T02:44:40.008Z,50.90
2022-07-25T02:45:35.069Z,53.30
2022-07-25T02:46:30.163Z,52.83
2022-07-25T02:47:25.304Z,51.62
2022-07-25T02:48:20.199Z,51.08
2022-07-25T02:49:15.463Z,51.91
2022-07-25T02:50:14.458Z,52.70
2022-07-25T02:51:05.691Z,54.77
2022-07-25T02:52:00.688Z,54.85
2022-07-25T02:52:55.819Z,53.61
2022-07-25T02:53:58.835Z,52.60
2022-07-25T02:54:46.867Z,51.37
2022-07-25T02:55:40.949Z,53.17
2022-07-25T02:56:36.036Z,53.75
2022-07-25T02:57:31.004Z,54.49
2022-07-25T02:58:26.078Z,54.81
2022-07-25T02:59:21.085Z,54.13
2022-07-25T03:00:16.166Z,52.24
2022-07-25T03:01:11.340Z,52.04
2022-07-25T03:02:06.344Z,51.18
2022-07-25T03:03:01.422Z,51.27
2022-07-25T03:03:56.445Z,52.67
2022-07-25T03:04:51.428Z,53.30
2022-07-25T03:05:46.549Z,52.97
2022-07-25T03:06:41.815Z,53.75
2022-07-25T03:07:37.493Z,52.43
2022-07-25T03:08:32.740Z,51.59
2022-07-25T03:09:28.690Z,51.27
2022-07-25T03:10:23.770Z,51.75
2022-07-25T03:11:19.156Z,53.03
2022-07-25T03:12:15.042Z,50.84
2022-07-25T03:13:10.234Z,48.08
2022-07-25T03:14:05.819Z,48.44
2022-07-25T03:15:02.026Z,50.07
2022-07-25T03:15:57.221Z,50.77
2022-07-25T03:16:53.119Z,51.59
2022-07-25T03:17:48.238Z,49.83
2022-07-25T03:18:43.677Z,49.89
2022-07-25T03:19:39.425Z,50.35
2022-07-25T03:20:34.707Z,51.56
2022-07-25T03:21:30.562Z,52.14
2022-07-25T03:22:25.699Z,53.24
2022-07-25T03:23:21.079Z,53.96
2022-07-25T03:24:16.851Z,52.70
2022-07-25T03:25:15.781Z,54.99
2022-07-25T03:26:08.247Z,54.74
2022-07-25T03:27:02.529Z,55.50
2022-07-25T03:27:58.414Z,53.85
2022-07-25T03:28:53.506Z,53.20
2022-07-25T03:29:48.820Z,51.15
2022-07-25T03:30:45.042Z,49.01
2022-07-25T03:31:40.274Z,49.89
2022-07-25T03:32:35.980Z,51.05
2022-07-25T03:33:31.126Z,52.56
2022-07-25T03:34:26.624Z,52.07
2022-07-25T03:35:22.247Z,51.30
2022-07-25T03:36:17.521Z,50.68
2022-07-25T03:37:13.408Z,50.44
2022-07-25T03:38:08.572Z,50.47
2022-07-25T03:39:05.327Z,51.08
2022-07-25T03:39:59.524Z,51.18
2022-07-25T03:40:54.850Z,51.18
2022-07-25T03:41:50.101Z,50.19
2022-07-25T03:42:46.523Z,50.22
2022-07-25T03:43:41.903Z,52.01
2022-07-25T03:44:37.737Z,51.91
2022-07-25T03:45:33.076Z,52.47
2022-07-25T03:46:28.281Z,53.03
2022-07-25T03:47:23.962Z,52.37
2022-07-25T03:48:19.307Z,51.78
2022-07-25T03:49:15.098Z,52.30
2022-07-25T03:50:10.445Z,52.90
2022-07-25T03:51:07.297Z,52.70
2022-07-25T03:52:01.511Z,52.14
2022-07-25T03:52:56.792Z,53.44
2022-07-25T03:53:52.068Z,52.33
2022-07-25T03:54:48.402Z,52.56
2022-07-25T03:55:43.713Z,52.14
2022-07-25T03:56:43.593Z,51.62
2022-07-25T03:57:34.711Z,51.49
2022-07-25T03:58:29.988Z,51.98
2022-07-25T03:59:25.880Z,51.98
2022-07-25T04:00:21.225Z,53.37
2022-07-25T04:01:17.110Z,52.07
2022-07-25T04:02:12.453Z,51.56
2022-07-25T04:03:07.909Z,51.34
2022-07-25T04:04:03.160Z,51.43
2022-07-25T04:04:57.989Z,51.59
2022-07-25T04:05:53.020Z,51.18
2022-07-25T04:06:48.022Z,50.68
2022-07-25T04:07:43.128Z,51.72
2022-07-25T04:08:38.135Z,51.30
2022-07-25T04:09:33.743Z,50.19
2022-07-25T04:10:28.277Z,50.56
2022-07-25T04:11:23.271Z,50.04
2022-07-25T04:12:18.352Z,50.28
2022-07-25T04:13:13.409Z,49.66
2022-07-25T04:14:08.832Z,50.28
2022-07-25T04:15:03.584Z,50.25
2022-07-25T04:15:58.613Z,50.22
2022-07-25T04:16:53.735Z,49.45
2022-07-25T04:17:48.772Z,50.22
2022-07-25T04:18:43.804Z,49.80
2022-07-25T04:19:38.929Z,49.16
2022-07-25T04:20:34.038Z,48.67
2022-07-25T04:21:29.126Z,49.57
2022-07-25T04:22:24.229Z,49.22
2022-07-25T04:23:19.325Z,50.53
2022-07-25T04:24:14.637Z,50.74
2022-07-25T04:25:09.995Z,50.84
2022-07-25T04:26:05.337Z,51.69
2022-07-25T04:27:00.434Z,51.18
2022-07-25T04:28:00.414Z,51.49
2022-07-25T04:28:55.624Z,51.34
2022-07-25T04:29:51.103Z,51.18
2022-07-25T04:30:46.501Z,50.84
2022-07-25T04:31:42.910Z,51.08
2022-07-25T04:32:38.216Z,51.62
2022-07-25T04:33:33.581Z,52.40
2022-07-25T04:34:32.524Z,53.00
2022-07-25T04:35:27.836Z,53.10
2022-07-25T04:36:23.219Z,54.95
2022-07-25T04:37:18.608Z,56.33
2022-07-25T04:38:13.641Z,55.21
2022-07-25T04:39:08.675Z,55.21
2022-07-25T04:40:03.750Z,54.49
2022-07-25T04:40:58.809Z,52.40
2022-07-25T04:41:53.825Z,50.44
2022-07-25T04:42:49.049Z,50.16
2022-07-25T04:43:48.528Z,50.01
2022-07-25T04:44:40.109Z,49.33
2022-07-25T04:45:34.124Z,49.45
2022-07-25T04:46:29.099Z,49.01
2022-07-25T04:47:24.168Z,47.75
2022-07-25T04:48:19.225Z,46.87
2022-07-25T04:49:14.463Z,47.19
2022-07-25T04:50:09.288Z,47.10
2022-07-25T04:51:04.364Z,46.92
2022-07-25T04:51:59.444Z,46.04
2022-07-25T04:52:54.586Z,46.40
2022-07-25T04:53:49.558Z,45.99
2022-07-25T04:54:44.636Z,46.92
2022-07-25T04:55:39.657Z,46.92
2022-07-25T04:56:34.675Z,46.87
2022-07-25T04:57:29.788Z,46.09
2022-07-25T04:58:24.865Z,46.35
2022-07-25T04:59:21.773Z,46.30
2022-07-25T05:00:16.827Z,45.69
2022-07-25T05:01:11.992Z,45.29
2022-07-25T05:02:07.036Z,45.05
2022-07-25T05:03:03.260Z,45.05
2022-07-25T05:03:58.553Z,44.62
2022-07-25T05:04:53.972Z,45.19
2022-07-25T05:05:49.392Z,44.62
2022-07-25T05:06:45.051Z,43.91
2022-07-25T05:07:40.412Z,44.10
2022-07-25T05:08:35.905Z,44.01
2022-07-25T05:09:31.429Z,43.91
2022-07-25T05:10:26.812Z,44.05
2022-07-25T05:11:22.123Z,44.90
2022-07-25T05:12:17.491Z,46.09
2022-07-25T05:13:13.223Z,46.66
2022-07-25T05:14:08.629Z,46.40
2022-07-25T05:15:03.785Z,46.50
2022-07-25T05:15:58.915Z,46.45
2022-07-25T05:16:54.078Z,46.82
2022-07-25T05:17:49.164Z,47.05
2022-07-25T05:18:44.234Z,47.35
2022-07-25T05:19:39.211Z,48.36
2022-07-25T05:20:34.305Z,48.96
2022-07-25T05:21:29.311Z,49.66
2022-07-25T05:22:28.544Z,49.10
2022-07-25T05:23:21.628Z,49.66
2022-07-25T05:24:16.848Z,48.64
2022-07-25T05:25:11.850Z,48.11
2022-07-25T05:26:06.877Z,48.11
2022-07-25T05:27:01.957Z,48.25
2022-07-25T05:27:57.206Z,48.00
2022-07-25T05:28:52.221Z,47.62
2022-07-25T05:29:47.308Z,47.37
2022-07-25T05:30:42.336Z,47.19
2022-07-25T05:31:37.339Z,47.21
2022-07-25T05:32:32.532Z,46.92
2022-07-25T05:33:27.565Z,46.35
2022-07-25T05:34:22.651Z,45.94
2022-07-25T05:35:17.715Z,45.89
2022-07-25T05:36:12.731Z,45.84
2022-07-25T05:37:08.342Z,46.61
2022-07-25T05:38:03.733Z,46.71
2022-07-25T05:38:59.162Z,46.97
2022-07-25T05:39:54.653Z,47.26
2022-07-25T05:40:50.085Z,48.25
2022-07-25T05:41:45.150Z,48.08
2022-07-25T05:42:40.173Z,47.78
2022-07-25T05:43:35.366Z,47.83
2022-07-25T05:44:30.324Z,47.62
2022-07-25T05:45:25.357Z,47.78
2022-07-25T05:46:20.387Z,48.25
2022-07-25T05:47:15.446Z,48.81
2022-07-25T05:48:10.830Z,48.73
2022-07-25T05:49:05.940Z,49.04
2022-07-25T05:50:00.870Z,50.07
2022-07-25T05:50:55.989Z,50.62
2022-07-25T05:51:50.962Z,51.34
2022-07-25T05:52:46.068Z,51.15
2022-07-25T05:53:41.193Z,51.85
2022-07-25T05:54:36.244Z,51.56
2022-07-25T05:55:31.294Z,51.15
2022-07-25T05:56:26.362Z,52.70
2022-07-25T05:57:21.400Z,53.82
2022-07-25T05:58:16.389Z,53.20
2022-07-25T05:59:11.531Z,51.91
2022-07-25T06:00:06.981Z,51.37
2022-07-25T06:01:02.581Z,51.05
2022-07-25T06:01:58.105Z,52.37
2022-07-25T06:02:53.447Z,52.83
2022-07-25T06:03:48.772Z,52.27
2022-07-25T06:04:44.200Z,52.83
2022-07-25T06:05:39.658Z,53.24
2022-07-25T06:06:35.104Z,53.75
2022-07-25T06:07:30.536Z,52.97
2022-07-25T06:08:25.970Z,52.76
2022-07-25T06:09:21.539Z,53.34
2022-07-25T06:10:16.857Z,53.37
2022-07-25T06:11:16.268Z,54.10
2022-07-25T06:12:11.689Z,54.70
2022-07-25T06:13:07.109Z,56.48
2022-07-25T06:14:02.627Z,57.73
2022-07-25T06:14:57.992Z,58.29
2022-07-25T06:15:53.691Z,57.89
2022-07-25T06:16:49.162Z,57.73
2022-07-25T06:17:44.593Z,58.99
2022-07-25T06:18:40.194Z,58.29
2022-07-25T06:19:35.605Z,58.21
2022-07-25T06:20:31.028Z,57.10
2022-07-25T06:21:26.647Z,58.70
2022-07-25T06:22:22.068Z,61.02
2022-07-25T06:23:17.527Z,63.58
2022-07-25T06:24:13.020Z,62.67
2022-07-25T06:25:08.044Z,61.74
2022-07-25T06:26:03.110Z,62.49
2022-07-25T06:26:58.162Z,59.88
2022-07-25T06:27:53.396Z,60.89
2022-07-25T06:28:48.472Z,58.91
2022-07-25T06:29:43.514Z,58.62
2022-07-25T06:30:38.546Z,60.89
2022-07-25T06:31:33.657Z,63.00
2022-07-25T06:32:28.744Z,65.63
2022-07-25T06:33:23.794Z,67.49
2022-07-25T06:34:20.059Z,69.28
2022-07-25T06:35:15.102Z,66.84
2022-07-25T06:36:10.200Z,65.48
2022-07-25T06:37:05.131Z,65.84
2022-07-25T06:38:00.973Z,65.22
2022-07-25T06:38:56.450Z,63.58
2022-07-25T06:39:51.899Z,63.00
2022-07-25T06:40:47.329Z,64.27
2022-07-25T06:41:42.835Z,64.36
2022-07-25T06:42:38.417Z,65.07
2022-07-25T06:43:33.890Z,67.65
2022-07-25T06:44:29.318Z,69.17
2022-07-25T06:45:25.402Z,70.57
2022-07-25T06:46:20.289Z,70.69
2022-07-25T06:47:15.750Z,70.16
2022-07-25T06:48:11.238Z,72.10
2022-07-25T06:49:06.757Z,75.35
2022-07-25T06:50:02.205Z,78.18
2022-07-25T06:50:57.634Z,77.45
2022-07-25T06:51:53.088Z,80.51
2022-07-25T06:52:48.715Z,82.18
2022-07-25T06:53:44.152Z,83.41
2022-07-25T06:54:39.581Z,83.58
2022-07-25T06:55:35.196Z,84.25
2022-07-25T06:56:30.636Z,86.26
2022-07-25T06:57:26.184Z,88.92
2022-07-25T06:58:22.820Z,92.26
2022-07-25T06:59:17.037Z,95.11
2022-07-25T07:00:12.077Z,94.98
2022-07-25T07:01:07.191Z,95.63
2022-07-25T07:02:02.128Z,94.33
2022-07-25T07:02:58.344Z,93.72
2022-07-25T07:03:52.345Z,89.59
2022-07-25T07:04:47.392Z,87.16
2022-07-25T07:05:42.448Z,86.71
2022-07-25T07:06:37.462Z,88.08
2022-07-25T07:07:32.495Z,94.46
2022-07-25T07:08:27.551Z,98.57
2022-07-25T07:09:22.646Z,102.00
2022-07-25T07:10:17.757Z,99.63
2022-07-25T07:11:12.789Z,98.05
2022-07-25T07:12:07.882Z,100.89
2022-07-25T07:13:03.125Z,104.69
2022-07-25T07:13:58.130Z,108.43
2022-07-25T07:14:53.224Z,110.22
2022-07-25T07:15:48.250Z,113.60
2022-07-25T07:16:43.337Z,116.37
2022-07-25T07:17:38.674Z,118.52
2022-07-25T07:18:33.345Z,119.03
2022-07-25T07:19:28.462Z,125.09
2022-07-25T07:20:23.417Z,126.90
2022-07-25T07:21:21.127Z,128.46
2022-07-25T07:22:13.636Z,125.75
2022-07-25T07:23:09.978Z,129.76
2022-07-25T07:24:05.593Z,135.67
2022-07-25T07:25:02.139Z,135.01
2022-07-25T07:25:56.470Z,132.34
2022-07-25T07:26:51.929Z,133.93
2022-07-25T07:27:47.473Z,138.49
2022-07-25T07:28:42.996Z,142.75
2022-07-25T07:29:38.469Z,143.98
2022-07-25T07:31:05.583Z,142.38
2022-07-25T07:31:30.320Z,143.24
2022-07-25T07:32:24.744Z,146.25
2022-07-25T07:33:20.058Z,146.12
2022-07-25T07:34:16.670Z,149.53
2022-07-25T07:35:10.813Z,147.55
2022-07-25T07:36:05.946Z,147.94
2022-07-25T07:37:00.966Z,150.47
2022-07-25T07:37:55.998Z,155.52
2022-07-25T07:38:51.054Z,153.94
2022-07-25T07:39:46.091Z,151.98
2022-07-25T07:40:41.135Z,153.10
2022-07-25T07:41:36.205Z,153.94
2022-07-25T07:42:31.675Z,150.88
2022-07-25T07:43:30.031Z,152.82
2022-07-25T07:44:21.886Z,152.68
2022-07-25T07:45:16.957Z,141.78
2022-07-25T07:46:12.084Z,122.34
2022-07-25T07:47:07.034Z,124.35
2022-07-25T07:48:03.104Z,133.82
2022-07-25T07:48:57.285Z,139.18
2022-07-25T07:49:52.619Z,139.06
2022-07-25T07:50:48.073Z,143.61
2022-07-25T07:51:43.562Z,145.74
2022-07-25T07:52:39.066Z,154.94
2022-07-25T07:53:34.542Z,160.30
2022-07-25T07:54:29.887Z,160.92
2022-07-25T07:55:25.358Z,162.65
2022-07-25T07:56:20.852Z,156.84
2022-07-25T07:57:16.306Z,156.25
2022-07-25T07:58:11.775Z,160.46
2022-07-25T07:59:07.176Z,168.56
2022-07-25T08:00:01.869Z,167.21
2022-07-25T08:00:56.922Z,170.98
2022-07-25T08:01:52.104Z,175.47
2022-07-25T08:02:47.192Z,175.66
2022-07-25T08:03:42.183Z,179.63
2022-07-25T08:04:37.254Z,182.58
2022-07-25T08:05:34.841Z,182.18
2022-07-25T08:06:29.903Z,185.10
2022-07-25T08:07:24.972Z,182.98
2022-07-25T08:08:20.059Z,190.25
2022-07-25T08:09:15.060Z,200.36
2022-07-25T08:10:10.081Z,216.06
2022-07-25T08:11:05.167Z,222.05
2022-07-25T08:12:00.208Z,228.07
2022-07-25T08:12:55.259Z,226.81
2022-07-25T08:13:50.315Z,229.67
2022-07-25T08:14:45.316Z,198.66
2022-07-25T08:15:40.388Z,192.26
2022-07-25T08:16:35.480Z,213.53
2022-07-25T08:17:30.866Z,230.15
2022-07-25T08:18:26.190Z,244.93
2022-07-25T08:19:21.762Z,255.01
2022-07-25T08:20:37.044Z,255.01
2022-07-25T08:21:13.726Z,262.15
2022-07-25T08:22:08.122Z,246.03
2022-07-25T08:23:03.578Z,250.92
2022-07-25T08:23:58.967Z,264.26
2022-07-25T08:24:54.462Z,278.15
2022-07-25T08:25:50.016Z,287.15
2022-07-25T08:26:45.715Z,281.73
2022-07-25T08:27:41.059Z,264.26
2022-07-25T08:28:39.941Z,261.94
2022-07-25T08:29:35.642Z,256.41
2022-07-25T08:30:31.218Z,263.20
2022-07-25T08:31:26.699Z,280.05
2022-07-25T08:32:22.159Z,273.51
2022-07-25T08:33:17.541Z,255.01
2022-07-25T08:34:13.051Z,231.61
2022-07-25T08:35:11.532Z,246.21
2022-07-25T08:36:03.958Z,254.42
2022-07-25T08:36:59.597Z,250.35
2022-07-25T08:37:55.126Z,258.02
2022-07-25T08:38:50.636Z,264.47
2022-07-25T08:39:46.732Z,280.05
2022-07-25T08:40:42.173Z,282.46
2022-07-25T08:41:37.560Z,286.65
2022-07-25T08:42:32.598Z,289.94
2022-07-25T08:43:27.645Z,281.49
2022-07-25T08:44:22.783Z,287.66
2022-07-25T08:45:17.753Z,281.73
2022-07-25T08:46:12.800Z,266.62
2022-07-25T08:47:07.827Z,277.44
2022-07-25T08:48:02.912Z,268.14
2022-07-25T08:48:58.047Z,271.47
2022-07-25T08:49:53.072Z,264.68
2022-07-25T08:50:48.113Z,264.90
2022-07-25T08:51:44.503Z,286.15
2022-07-25T08:52:39.584Z,291.75
2022-07-25T08:53:35.576Z,280.77
2022-07-25T08:54:30.022Z,290.20
2022-07-25T08:55:25.121Z,296.49
2022-07-25T08:56:21.277Z,298.11
2022-07-25T08:57:15.152Z,299.20
2022-07-25T08:58:10.169Z,308.77
2022-07-25T08:59:05.240Z,309.06
2022-07-25T09:00:00.355Z,293.31
2022-07-25T09:00:55.370Z,304.19
2022-07-25T09:01:50.513Z,308.77
2022-07-25T09:02:45.601Z,318.36
2022-07-25T09:03:41.009Z,327.90
2022-07-25T09:04:36.018Z,338.73
2022-07-25T09:05:31.101Z,344.42
2022-07-25T09:06:26.190Z,342.98
2022-07-25T09:07:24.502Z,336.65
2022-07-25T09:08:19.628Z,318.67
2022-07-25T09:09:14.675Z,311.70
2022-07-25T09:10:09.722Z,309.64
2022-07-25T09:11:04.798Z,302.79
2022-07-25T09:11:59.784Z,324.98
2022-07-25T09:12:54.900Z,309.94
2022-07-25T09:13:50.003Z,286.40
2022-07-25T09:14:45.072Z,312.30
2022-07-25T09:15:40.217Z,340.85
2022-07-25T09:16:35.137Z,352.19
2022-07-25T09:17:30.247Z,351.81
2022-07-25T09:18:25.411Z,370.90
2022-07-25T09:19:21.015Z,394.81
2022-07-25T09:20:18.542Z,382.36
2022-07-25T09:21:12.015Z,332.89
2022-07-25T09:22:07.412Z,322.11
2022-07-25T09:23:02.861Z,327.90
2022-07-25T09:23:58.274Z,340.14
2022-07-25T09:24:53.921Z,367.99
2022-07-25T09:25:49.340Z,332.89
2022-07-25T09:26:44.891Z,341.91
2022-07-25T09:27:40.295Z,382.14
2022-07-25T09:28:35.678Z,410.86
2022-07-25T09:29:31.124Z,417.03
2022-07-25T09:30:30.347Z,433.29
2022-07-25T09:31:25.819Z,404.14
2022-07-25T09:32:21.226Z,389.28
2022-07-25T09:33:16.597Z,371.74
2022-07-25T09:34:12.144Z,362.70
2022-07-25T09:35:07.675Z,379.31
2022-07-25T09:36:02.985Z,371.74
2022-07-25T09:36:58.274Z,371.74
2022-07-25T09:37:53.785Z,381.70
2022-07-25T09:38:49.573Z,406.85
2022-07-25T09:39:47.294Z,398.82
2022-07-25T09:40:41.415Z,417.55
2022-07-25T09:41:36.895Z,436.41
2022-07-25T09:42:32.351Z,363.91
2022-07-25T09:43:27.850Z,399.06
2022-07-25T09:44:23.297Z,446.34
2022-07-25T09:45:18.787Z,435.84
2022-07-25T09:46:13.955Z,474.28
2022-07-25T09:47:08.849Z,400.74
2022-07-25T09:48:03.967Z,434.14
2022-07-25T09:48:59.032Z,457.99
2022-07-25T09:49:54.103Z,453.94
2022-07-25T09:50:49.197Z,496.89
2022-07-25T09:51:44.432Z,547.48
2022-07-25T09:52:39.370Z,580.86
2022-07-25T09:53:34.441Z,536.04
2022-07-25T09:54:29.454Z,565.11
2022-07-25T09:55:24.508Z,558.49
2022-07-25T09:56:19.556Z,541.70
2022-07-25T09:57:14.568Z,500.25
2022-07-25T09:58:10.205Z,505.56
2022-07-25T09:59:05.544Z,500.25
2022-07-25T10:00:01.017Z,532.61
2022-07-25T10:00:56.528Z,586.48
2022-07-25T10:01:52.135Z,590.12
2022-07-25T10:02:47.730Z,618.58
2022-07-25T10:03:42.981Z,605.66
2022-07-25T10:04:37.798Z,573.37
2022-07-25T10:05:32.834Z,573.37
2022-07-25T10:06:28.936Z,561.78
2022-07-25T10:07:27.070Z,615.73
2022-07-25T10:08:20.160Z,672.89
2022-07-25T10:09:14.297Z,628.49
2022-07-25T10:10:10.192Z,638.73
2022-07-25T10:11:05.721Z,626.13
2022-07-25T10:12:01.323Z,673.57
2022-07-25T10:12:56.820Z,723.25
2022-07-25T10:13:52.430Z,762.42
2022-07-25T10:14:47.761Z,777.52
2022-07-25T10:15:43.159Z,739.28
2022-07-25T10:16:38.847Z,691.74
2022-07-25T10:17:34.253Z,712.43
2022-07-25T10:18:29.592Z,688.88
2022-07-25T10:19:25.243Z,715.49
2022-07-25T10:20:20.618Z,708.64
2022-07-25T10:21:26.215Z,666.83
2022-07-25T10:22:12.720Z,745.90
2022-07-25T10:23:06.725Z,830.22
2022-07-25T10:24:01.809Z,859.07
2022-07-25T10:24:56.905Z,924.52
2022-07-25T10:25:52.082Z,868.01
2022-07-25T10:26:47.054Z,891.78
2022-07-25T10:27:42.136Z,847.62
2022-07-25T10:28:37.229Z,797.97
2022-07-25T10:29:34.510Z,705.64
2022-07-25T10:30:29.740Z,691.74
2022-07-25T10:31:24.953Z,635.68
2022-07-25T10:32:19.928Z,563.20
2022-07-25T10:33:15.047Z,636.90
2022-07-25T10:34:10.685Z,610.65
2022-07-25T10:35:05.159Z,641.19
2022-07-25T10:36:00.288Z,754.24
2022-07-25T10:36:55.789Z,789.47
2022-07-25T10:37:51.140Z,785.29
2022-07-25T10:38:46.686Z,766.36
2022-07-25T10:39:42.354Z,772.57
2022-07-25T10:40:37.856Z,764.17
2022-07-25T10:41:33.388Z,852.49
2022-07-25T10:42:28.777Z,879.45
2022-07-25T10:43:24.268Z,905.09
2022-07-25T10:44:19.351Z,889.41
2022-07-25T10:45:14.559Z,851.95
2022-07-25T10:46:09.542Z,788.08
2022-07-25T10:47:04.593Z,824.58
2022-07-25T10:47:59.673Z,861.29
2022-07-25T10:48:54.889Z,846.54
2022-07-25T10:50:13.840Z,926.44
2022-07-25T10:50:55.335Z,893.57
2022-07-25T10:51:42.127Z,742.58
2022-07-25T10:52:34.991Z,739.28
2022-07-25T10:53:30.096Z,784.37
2022-07-25T10:54:25.117Z,737.65
2022-07-25T10:55:20.099Z,749.25
2022-07-25T10:56:15.188Z,833.33
2022-07-25T10:57:10.534Z,862.40
2022-07-25T10:58:20.308Z,840.68
2022-07-25T10:59:02.642Z,810.07
2022-07-25T10:59:57.085Z,732.78
2022-07-25T11:00:52.657Z,653.76
2022-07-25T11:01:48.192Z,731.18
2022-07-25T11:02:43.861Z,769.90
2022-07-25T11:03:39.208Z,866.32
2022-07-25T11:04:34.746Z,898.99
2022-07-25T11:05:30.276Z,878.87
2022-07-25T11:06:25.881Z,846.54
2022-07-25T11:07:21.221Z,854.13
2022-07-25T11:08:22.141Z,673.57
2022-07-25T11:09:18.484Z,679.06
2022-07-25T11:10:10.844Z,786.22
2022-07-25T11:11:06.236Z,826.11
2022-07-25T11:12:01.738Z,904.47
2022-07-25T11:12:57.411Z,938.82
2022-07-25T11:13:52.772Z,943.46
2022-07-25T11:14:48.425Z,993.30
2022-07-25T11:15:43.815Z,1042.16
2022-07-25T11:16:39.286Z,1032.48
2022-07-25T11:17:34.351Z,1074.01
2022-07-25T11:18:29.371Z,1067.15
2022-07-25T11:19:24.416Z,1010.60
2022-07-25T11:20:19.584Z,963.90
2022-07-25T11:21:14.717Z,913.76
2022-07-25T11:22:09.799Z,927.73
2022-07-25T11:23:04.897Z,917.53
2022-07-25T11:24:00.073Z,908.16
2022-07-25T11:24:55.130Z,959.05
2022-07-25T11:25:50.140Z,1005.27
2022-07-25T11:26:45.307Z,927.73
2022-07-25T11:27:40.389Z,843.34
2022-07-25T11:28:35.501Z,729.58
2022-07-25T11:29:30.612Z,769.45
2022-07-25T11:30:25.983Z,897.18
2022-07-25T11:31:25.222Z,1028.51
2022-07-25T11:32:20.808Z,905.09
2022-07-25T11:33:17.641Z,868.58
2022-07-25T11:34:11.755Z,864.08
2022-07-25T11:35:07.388Z,929.02
2022-07-25T11:36:03.147Z,970.20
2022-07-25T11:36:58.477Z,923.24
2022-07-25T11:37:53.743Z,968.09
2022-07-25T11:38:49.352Z,1004.52
2022-07-25T11:39:44.859Z,1015.21
2022-07-25T11:40:40.394Z,1067.15
2022-07-25T11:41:35.671Z,1096.06
2022-07-25T11:42:31.260Z,1109.73
2022-07-25T11:43:26.584Z,1099.67